Latest Coastal Weather Observations for Frankston

IDV60701

Issued at 8:41 am EDT Saturday 31 January 2015 (issued every 10 minutes, with the page automatically refreshed every 10 minutes)

About coastal observations | Map of coastal stations | Coastal observations for VIC | Marine services | Other Formats
Station Details ID: 086371 Name: FRANKSTON AWS Lat: -38.15 Lon: 145.12 Height: 6.0 m
Data from the previous 72 hours. | See also: Recent months at Frankston
Date/Time
EDT
Temp

°C
Wind Pressure Rain
since 9am
mm
Weather Cloud Vis
km
Sea
Height
m
Swell
Dir
 
Speed
knots
Gust
knots
hPa Trend Height
m
Period
s
Dir
31/08:30am 17.1 WSW 12 15 - - - - - - - - - -
31/08:00am 16.9 SW 10 12 - - - - - - - - - -
31/07:30am 16.7 SW 10 14 - - - - - - - - - -
31/07:00am 16.6 SW 10 13 - - - - - - - - - -
31/06:30am 15.6 SSW 5 8 - - - - - - - - - -
31/06:00am 15.5 SW 7 10 - - - - - - - - - -
31/05:30am 15.5 SW 6 9 - - - - - - - - - -
31/05:00am 15.1 SSW 5 8 - - - - - - - - - -
31/04:30am 14.9 SSW 5 8 - - - - - - - - - -
31/04:00am 14.7 S 4 6 - - - - - - - - - -
31/03:30am 14.6 S 3 5 - - - - - - - - - -
31/03:00am - S 3 5 - - - - - - - - - -
31/02:30am 14.5 SSW 2 3 - - - - - - - - - -
31/02:00am 14.6 SSW 3 4 - - - - - - - - - -
31/01:30am 14.8 S 3 5 - - - - - - - - - -
31/01:00am 14.8 S 4 5 - - - - - - - - - -
31/12:30am - S 4 5 - - - - - - - - - -
31/12:00am - S 4 6 - - - - - - - - - -
 
Date/Time
EDT
Temp

°C
Wind Pressure Rain
since 9am
mm
Weather Cloud Vis
km
Sea
Height
m
Swell
Dir
 
Speed
knots
Gust
knots
hPa Trend Height
m
Period
s
Dir
30/11:30pm - S 4 5 - - - - - - - - - -
30/11:00pm 14.8 S 4 5 - - - - - - - - - -
30/10:30pm 15.0 SSW 3 5 - - - - - - - - - -
30/10:00pm 15.2 SSW 3 4 - - - - - - - - - -
30/09:30pm 15.6 SSW 2 4 - - - - - - - - - -
30/09:00pm 15.9 SSW 4 6 - - - - - - - - - -
30/08:30pm 16.4 SSW 6 11 - - - - - - - - - -
30/08:00pm 17.5 SSW 6 11 - - - - - - - - - -
30/07:30pm 18.1 S 6 12 - - - - - - - - - -
30/07:00pm 18.4 SSW 7 13 - - - - - - - - - -
30/06:30pm 18.3 S 7 13 - - - - - - - - - -
30/06:00pm 18.8 S 7 13 - - - - - - - - - -
30/05:30pm 18.4 SSE 8 14 - - - - - - - - - -
30/05:00pm 18.3 SE 8 15 - - - - - - - - - -
30/04:30pm 19.4 SSW 10 16 - - - - - - - - - -
30/04:00pm 18.7 S 9 15 - - - - - - - - - -
30/03:30pm 19.7 SSW 9 15 - - - - - - - - - -
30/03:00pm 19.0 S 10 15 - - - - - - - - - -
30/02:30pm 18.7 SSW 7 13 - - - - - - - - - -
30/02:00pm 19.0 SSW 9 17 - - - - - - - - - -
30/01:30pm 18.4 SSW 11 19 - - - - - - - - - -
30/01:00pm 18.2 SSW 8 14 - - - - - - - - - -
30/12:30pm 18.1 SSW 7 15 - - - - - - - - - -
30/12:00pm 17.5 SSW 8 14 - - - - - - - - - -
30/11:30am 17.5 SW 7 11 - - - - - - - - - -
30/11:00am 17.4 S 3 7 - - - - - - - - - -
30/10:30am 17.7 SSE 4 9 - - - - - - - - - -
30/10:00am 16.3 SSW 4 10 - - - - - - - - - -
30/09:30am 16.2 SSE 5 8 - - - - - - - - - -
30/09:00am 15.5 SE 3 6 - - - - - - - - - -
30/08:30am 14.8 SE 3 5 - - - - - - - - - -
30/08:00am 13.9 SSE 1 3 - - - - - - - - - -
30/07:30am 13.8 SSE 4 6 - - - - - - - - - -
30/07:00am 13.1 SE 3 5 - - - - - - - - - -
30/06:30am 13.1 SSE 2 6 - - - - - - - - - -
30/06:00am 13.1 SE 1 3 - - - - - - - - - -
30/05:30am 13.1 ESE 3 5 - - - - - - - - - -
30/05:00am 13.3 SE 5 8 - - - - - - - - - -
30/04:30am 13.5 SSE 1 3 - - - - - - - - - -
30/04:00am 13.6 SSE 3 5 - - - - - - - - - -
30/03:30am 14.8 S 3 5 - - - - - - - - - -
30/03:00am 14.7 SE 2 4 - - - - - - - - - -
30/02:30am 14.2 SE 1 3 - - - - - - - - - -
30/02:00am 13.8 S 1 2 - - - - - - - - - -
30/01:30am 13.9 SSE 2 3 - - - - - - - - - -
30/01:00am 14.1 SSE 2 3 - - - - - - - - - -
30/12:30am 14.6 SSE 2 4 - - - - - - - - - -
30/12:00am 14.9 SE 3 5 - - - - - - - - - -
 
Date/Time
EDT
Temp

°C
Wind Pressure Rain
since 9am
mm
Weather Cloud Vis
km
Sea
Height
m
Swell
Dir
 
Speed
knots
Gust
knots
hPa Trend Height
m
Period
s
Dir
29/11:30pm 15.2 SSE 3 5 - - - - - - - - - -
29/11:00pm 15.6 SE 3 7 - - - - - - - - - -
29/10:30pm 15.9 ESE 4 8 - - - - - - - - - -
29/10:00pm 16.2 SE 6 12 - - - - - - - - - -
29/09:30pm 16.4 SE 5 9 - - - - - - - - - -
29/09:00pm 16.8 SE 6 12 - - - - - - - - - -
29/08:30pm 16.9 SE 4 11 - - - - - - - - - -
29/08:00pm 17.1 SE 7 13 - - - - - - - - - -
29/07:30pm 18.5 SSE 8 17 - - - - - - - - - -
29/07:00pm 18.1 S 8 17 - - - - - - - - - -
29/06:30pm 18.3 S 9 16 - - - - - - - - - -
29/06:00pm 18.6 SSE 11 18 - - - - - - - - - -
29/05:30pm 18.6 S 10 18 - - - - - - - - - -
29/05:00pm 19.2 SSE 10 16 - - - - - - - - - -
29/04:30pm 19.7 SSE 10 19 - - - - - - - - - -
29/04:00pm 19.6 SSE 10 18 - - - - - - - - - -
29/03:30pm 19.1 SSE 12 20 - - - - - - - - - -
29/03:00pm 18.9 SSE 11 20 - - - - - - - - - -
29/02:30pm 19.3 S 10 18 - - - - - - - - - -
29/02:00pm 19.3 SSE 10 17 - - - - - - - - - -
29/01:30pm 19.6 S 9 20 - - - - - - - - - -
29/01:00pm 19.3 SSE 10 16 - - - - - - - - - -
29/12:30pm 19.1 SSE 9 17 - - - - - - - - - -
29/12:00pm 19.1 S 8 18 - - - - - - - - - -
29/11:30am 17.8 S 8 15 - - - - - - - - - -
29/11:00am 18.3 SE 6 12 - - - - - - - - - -
29/10:30am 18.7 ESE 6 12 - - - - - - - - - -
29/10:00am 17.9 ESE 6 11 - - - - - - - - - -
29/09:30am 16.8 ESE 8 13 - - - - - - - - - -
29/09:00am 16.6 SE 6 14 - - - - - - - - - -
29/08:30am 15.9 SE 6 11 - - - - - - - - - -
29/08:00am 15.2 ESE 4 8 - - - - - - - - - -
29/07:30am 14.2 SSE 3 7 - - - - - - - - - -
29/07:00am 13.5 SSE 2 4 - - - - - - - - - -
29/06:30am 12.8 S 2 5 - - - - - - - - - -
29/06:00am 13.0 SSE 2 5 - - - - - - - - - -
29/05:30am 12.8 SSE 2 4 - - - - - - - - - -
29/05:00am 12.9 SSE 2 4 - - - - - - - - - -
29/04:30am 12.9 S 2 5 - - - - - - - - - -
29/04:00am 13.1 S 2 4 - - - - - - - - - -
29/03:30am 13.6 SSE 3 5 - - - - - - - - - -
29/03:00am 13.8 SSE 2 4 - - - - - - - - - -
29/02:30am 14.1 SSE 3 5 - - - - - - - - - -
29/02:00am - SE 4 7 - - - - - - - - - -
29/01:30am - SE 4 7 - - - - - - - - - -
29/01:00am 15.0 SE 4 8 - - - - - - - - - -
29/12:30am 15.3 SE 4 10 - - - - - - - - - -
29/12:00am 15.5 ESE 5 10 - - - - - - - - - -
 
Date/Time
EDT
Temp

°C
Wind Pressure Rain
since 9am
mm
Weather Cloud Vis
km
Sea
Height
m
Swell
Dir
 
Speed
knots
Gust
knots
hPa Trend Height
m
Period
s
Dir
28/11:30pm 16.0 ESE 6 10 - - - - - - - - - -
28/11:00pm 16.3 ESE 7 12 - - - - - - - - - -
28/10:30pm 16.5 SE 6 11 - - - - - - - - - -
28/10:00pm 16.9 SE 6 12 - - - - - - - - - -
28/09:30pm 17.5 SSE 5 9 - - - - - - - - - -
28/09:00pm 18.1 SE 5 11 - - - - - - - - - -
28/08:30pm 18.8 SE 7 10 - - - - - - - - - -
28/08:00pm 19.5 SE 7 14 - - - - - - - - - -
28/07:30pm 19.6 SSE 8 15 - - - - - - - - - -
28/07:00pm 19.8 SSE 9 19 - - - - - - - - - -
28/06:30pm 20.1 SSE 11 20 - - - - - - - - - -
28/06:00pm 20.5 S 10 18 - - - - - - - - - -
28/05:30pm 20.8 SSE 12 23 - - - - - - - - - -
28/05:00pm 21.1 SSE 11 19 - - - - - - - - - -
28/04:30pm 22.0 SSE 10 22 - - - - - - - - - -
28/04:00pm 21.7 SSE 11 23 - - - - - - - - - -
28/03:30pm 22.1 SSE 9 18 - - - - - - - - - -
28/03:00pm 22.0 SE 9 19 - - - - - - - - - -
28/02:30pm 22.4 SE 9 15 - - - - - - - - - -
28/02:00pm 22.7 SE 9 16 - - - - - - - - - -
28/01:30pm 22.8 SSE 9 17 - - - - - - - - - -
28/01:00pm 22.6 SSE 10 19 - - - - - - - - - -
28/12:30pm 21.9 SSE 10 19 - - - - - - - - - -
28/12:00pm 21.0 SE 11 19 - - - - - - - - - -
28/11:30am 20.1 SE 10 19 - - - - - - - - - -
28/11:00am 19.4 SE 8 15 - - - - - - - - - -
28/10:30am 18.6 ESE 9 15 - - - - - - - - - -
28/10:00am 18.8 SE 7 12 - - - - - - - - - -
28/09:30am 17.3 SE 7 12 - - - - - - - - - -
28/09:00am 16.6 ESE 7 12 - - - - - - - - - -

Other Formats:

Comma delimited format used in spreadsheet applications
http://www.bom.gov.au/fwo/IDV60701/IDV60701.94871.axf

JavaScript Object Notation format (JSON) in row-major order
http://www.bom.gov.au/fwo/IDV60701/IDV60701.94871.json